Time;durP1;ratioP1;P1;durP2;ratioP2;P2;SDS_P1;SDS_P2;PMS_P1;PMS_P2;Temp;Humidity;BMP_temperature;BMP_pressure;BME280_temperature;BME280_humidity;BME280_pressure;Samples;Min_cycle;Max_cycle;Signal;HPM_P1;HPM_P2
2024/04/08 00:01:08;;;;;;;23.60;3.40;;;15.40;99.90;;;;;;5229618;27;20086;-79
2024/04/08 00:03:33;;;;;;;8.98;2.38;;;15.40;99.90;;;;;;5230673;27;20439;-79
2024/04/08 00:05:59;;;;;;;11.52;2.50;;;15.40;99.90;;;;;;5224777;27;20000;-78
2024/04/08 00:08:24;;;;;;;12.25;2.40;;;15.30;99.90;;;;;;5237083;27;20007;-78
2024/04/08 00:10:50;;;;;;;8.98;2.65;;;15.20;99.90;;;;;;5235579;27;20007;-79
2024/04/08 00:13:16;;;;;;;17.20;2.50;;;15.10;99.90;;;;;;5234963;27;20022;-79
2024/04/08 00:15:41;;;;;;;17.58;2.80;;;15.10;99.90;;;;;;5230792;27;20778;-79
2024/04/08 00:18:07;;;;;;;10.55;2.63;;;15.10;99.90;;;;;;5226636;27;20007;-79
2024/04/08 00:20:33;;;;;;;19.98;3.28;;;15.00;99.90;;;;;;5227217;27;20013;-80
2024/04/08 00:23:01;;;;;;;6.03;2.58;;;14.90;99.90;;;;;;5230773;27;20003;-78
2024/04/08 00:25:27;;;;;;;17.92;2.28;;;15.00;99.90;;;;;;5234035;27;19999;-79
2024/04/08 00:27:52;;;;;;;15.93;2.63;;;15.20;99.90;;;;;;5221410;27;20014;-79
2024/04/08 00:30:18;;;;;;;14.20;2.30;;;15.10;99.90;;;;;;5222353;27;20003;-79
2024/04/08 00:32:43;;;;;;;12.80;3.20;;;15.10;99.90;;;;;;5231331;27;20015;-79
2024/04/08 00:35:09;;;;;;;10.38;2.70;;;15.00;99.90;;;;;;5231881;27;20014;-81
2024/04/08 00:37:34;;;;;;;11.30;2.65;;;15.00;99.90;;;;;;5238769;27;20010;-80
2024/04/08 00:40:00;;;;;;;12.32;2.75;;;15.00;99.90;;;;;;5230371;27;20044;-78
2024/04/08 00:42:26;;;;;;;10.63;2.55;;;15.00;99.90;;;;;;5236021;27;20015;-80
2024/04/08 00:44:51;;;;;;;7.20;2.40;;;15.20;99.90;;;;;;5226710;27;19999;-78
2024/04/08 00:47:17;;;;;;;12.38;2.35;;;15.20;99.90;;;;;;5234250;27;20043;-78
2024/04/08 00:49:44;;;;;;;15.25;2.65;;;15.30;99.90;;;;;;5222707;27;20011;-79
2024/04/08 00:52:12;;;;;;;16.92;2.40;;;15.10;99.90;;;;;;5220222;27;20018;-80
2024/04/08 00:54:41;;;;;;;11.38;2.47;;;14.90;99.90;;;;;;5233310;27;20006;-78
2024/04/08 00:57:13;;;;;;;16.58;2.35;;;14.90;99.90;;;;;;5230180;27;20071;-78
2024/04/08 00:59:39;;;;;;;11.48;2.47;;;15.00;99.90;;;;;;5221806;27;20004;-78
2024/04/08 01:02:04;;;;;;;14.13;2.40;;;15.10;99.90;;;;;;5238145;27;20011;-80
2024/04/08 01:04:32;;;;;;;11.55;2.05;;;15.10;99.90;;;;;;5236593;27;20003;-78
2024/04/08 01:06:58;;;;;;;18.27;2.67;;;14.80;99.90;;;;;;5233306;27;20022;-79
2024/04/08 01:09:24;;;;;;;9.20;2.00;;;14.70;99.90;;;;;;5235446;27;20007;-80
2024/04/08 01:11:50;;;;;;;12.13;2.70;;;14.70;99.90;;;;;;5228136;27;20393;-79
2024/04/08 01:14:15;;;;;;;11.52;2.60;;;15.10;99.90;;;;;;5229416;27;20010;-78
2024/04/08 01:16:41;;;;;;;9.43;2.05;;;15.10;99.90;;;;;;5229552;27;20006;-80
2024/04/08 01:19:06;;;;;;;11.68;2.33;;;15.00;99.90;;;;;;5235099;27;20021;-79
2024/04/08 01:21:32;;;;;;;13.85;2.38;;;15.10;99.90;;;;;;5224016;27;20003;-79
2024/04/08 01:23:58;;;;;;;11.32;2.67;;;15.00;99.90;;;;;;5235993;27;20011;-80
2024/04/08 01:26:24;;;;;;;11.05;2.22;;;14.80;99.90;;;;;;5230871;27;20013;-79
2024/04/08 01:28:50;;;;;;;11.55;2.10;;;14.80;99.90;;;;;;5229939;27;20390;-78
2024/04/08 01:31:16;;;;;;;11.00;2.22;;;14.70;99.90;;;;;;5221972;27;20021;-79
2024/04/08 01:33:42;;;;;;;10.43;2.42;;;14.70;99.90;;;;;;5221382;27;20007;-79
2024/04/08 01:36:09;;;;;;;20.33;2.28;;;14.70;99.90;;;;;;5231614;27;20087;-80
2024/04/08 01:38:39;;;;;;;9.43;2.10;;;14.90;99.90;;;;;;5230200;27;19999;-81
2024/04/08 01:41:05;;;;;;;13.85;3.72;;;15.10;99.90;;;;;;5233471;27;20003;-80
2024/04/08 01:43:31;;;;;;;9.55;2.88;;;15.10;99.90;;;;;;5232664;27;20055;-81
2024/04/08 01:45:56;;;;;;;12.02;2.25;;;15.10;99.90;;;;;;5222816;27;20007;-81
2024/04/08 01:48:22;;;;;;;13.77;2.55;;;14.90;99.90;;;;;;5232100;27;20474;-82
2024/04/08 01:50:47;;;;;;;12.75;2.30;;;14.70;99.90;;;;;;5228664;27;20003;-79
2024/04/08 01:53:13;;;;;;;15.23;1.90;;;14.80;99.90;;;;;;5225120;27;20008;-80
2024/04/08 01:55:38;;;;;;;7.85;2.17;;;14.60;99.90;;;;;;5219033;27;20014;-79
2024/04/08 01:58:04;;;;;;;14.35;2.35;;;14.60;99.90;;;;;;5228923;27;20003;-79
2024/04/08 02:00:30;;;;;;;7.30;2.63;;;14.50;99.90;;;;;;5230094;27;20003;-79
2024/04/08 02:02:55;;;;;;;7.78;2.15;;;14.60;99.90;;;;;;5217518;27;20022;-79
2024/04/08 02:05:21;;;;;;;9.45;2.45;;;14.50;99.90;;;;;;5222382;27;20007;-79
2024/04/08 02:07:50;;;;;;;17.67;2.50;;;14.50;99.90;;;;;;5226426;27;20007;-79
2024/04/08 02:10:16;;;;;;;15.18;2.25;;;14.50;99.90;;;;;;5229354;27;20055;-79
2024/04/08 02:12:41;;;;;;;7.65;2.38;;;14.50;99.90;;;;;;5229306;27;19999;-79
2024/04/08 02:15:07;;;;;;;6.70;1.77;;;14.70;99.90;;;;;;5234363;27;20018;-79
2024/04/08 02:17:33;;;;;;;19.13;2.90;;;14.70;99.90;;;;;;5216079;27;20004;-78
2024/04/08 02:19:58;;;;;;;15.55;2.45;;;14.80;99.90;;;;;;5221308;27;20011;-79
2024/04/08 02:22:24;;;;;;;15.27;2.20;;;14.70;99.90;;;;;;5232114;27;20013;-79
2024/04/08 02:24:49;;;;;;;11.55;2.13;;;14.60;99.90;;;;;;5233569;27;19998;-79
2024/04/08 02:27:15;;;;;;;9.82;2.70;;;14.60;99.90;;;;;;5215410;27;20018;-79
2024/04/08 02:29:41;;;;;;;9.38;1.95;;;14.50;99.90;;;;;;5227185;27;19999;-80
2024/04/08 02:32:06;;;;;;;7.75;2.20;;;14.50;99.90;;;;;;5229682;27;19999;-78
2024/04/08 02:34:32;;;;;;;11.48;1.92;;;14.50;99.90;;;;;;5231153;27;19999;-79
2024/04/08 02:36:57;;;;;;;11.88;2.42;;;14.50;99.90;;;;;;5228354;27;20011;-80
2024/04/08 02:39:23;;;;;;;24.17;2.60;;;14.40;99.90;;;;;;5237672;27;20014;-80
2024/04/08 02:41:48;;;;;;;13.55;2.47;;;14.30;99.90;;;;;;5225910;27;20556;-79
2024/04/08 02:44:14;;;;;;;13.98;2.45;;;14.20;99.90;;;;;;5234522;27;20003;-80
2024/04/08 02:46:40;;;;;;;17.80;3.15;;;14.20;99.90;;;;;;5221948;27;20004;-79
2024/04/08 02:49:05;;;;;;;11.48;2.15;;;14.20;99.90;;;;;;5215532;27;20571;-79
2024/04/08 02:51:31;;;;;;;14.18;2.50;;;14.00;99.90;;;;;;5236798;27;20473;-79
2024/04/08 02:53:56;;;;;;;9.60;2.08;;;13.90;99.90;;;;;;5229404;27;20477;-79
2024/04/08 02:56:22;;;;;;;8.00;2.83;;;14.00;99.90;;;;;;5225714;27;20040;-78
2024/04/08 02:58:48;;;;;;;17.15;2.65;;;13.90;99.90;;;;;;5212377;27;20397;-79
2024/04/08 03:01:14;;;;;;;10.65;2.15;;;13.80;99.90;;;;;;5233081;27;20010;-79
2024/04/08 03:03:40;;;;;;;14.43;2.75;;;13.80;99.90;;;;;;5235885;27;20007;-81
2024/04/08 03:06:13;;;;;;;15.90;2.80;;;13.80;99.90;;;;;;5264540;27;20040;-80
2024/04/08 03:08:40;;;;;;;19.67;2.53;;;13.80;99.90;;;;;;5239774;27;20532;-79
2024/04/08 03:11:06;;;;;;;6.45;1.98;;;13.80;99.90;;;;;;5220129;27;20004;-78
2024/04/08 03:13:33;;;;;;;10.68;2.28;;;14.00;99.90;;;;;;5226765;27;20473;-80
2024/04/08 03:15:59;;;;;;;11.88;1.98;;;13.90;99.90;;;;;;5230539;27;20003;-79
2024/04/08 03:18:24;;;;;;;16.98;2.80;;;13.70;99.90;;;;;;5225385;27;20019;-79
2024/04/08 03:20:57;;;;;;;21.73;2.97;;;13.60;99.90;;;;;;5217007;27;20018;-80
2024/04/08 03:23:23;;;;;;;11.93;2.50;;;13.60;99.90;;;;;;5225047;27;20008;-79
2024/04/08 03:25:56;;;;;;;9.15;2.25;;;13.60;99.90;;;;;;5235948;27;20018;-79
2024/04/08 03:28:21;;;;;;;15.45;2.53;;;13.60;99.90;;;;;;5223574;27;20023;-79
2024/04/08 03:30:47;;;;;;;11.90;2.58;;;13.60;99.90;;;;;;5234990;27;20032;-78
2024/04/08 03:33:12;;;;;;;8.85;2.42;;;13.60;99.90;;;;;;5224513;27;20016;-80
2024/04/08 03:35:38;;;;;;;20.90;2.70;;;13.50;99.90;;;;;;5234412;27;20029;-78
2024/04/08 03:38:04;;;;;;;9.35;2.53;;;13.60;99.90;;;;;;5238300;27;20000;-81
2024/04/08 03:40:29;;;;;;;9.07;2.67;;;13.70;99.90;;;;;;5225137;27;20709;-79
2024/04/08 03:42:55;;;;;;;10.43;2.80;;;13.60;99.90;;;;;;5217756;27;20486;-80
2024/04/08 03:45:21;;;;;;;13.38;2.40;;;13.80;99.90;;;;;;5236417;27;20370;-78
2024/04/08 03:47:46;;;;;;;20.50;2.83;;;13.90;99.90;;;;;;5231015;27;20031;-78
2024/04/08 03:50:12;;;;;;;8.40;2.40;;;13.90;99.90;;;;;;5233341;27;20085;-81
2024/04/08 03:52:37;;;;;;;11.30;2.53;;;13.90;99.90;;;;;;5214690;27;20052;-78
2024/04/08 03:55:03;;;;;;;10.05;2.33;;;13.80;99.90;;;;;;5222063;27;20123;-79
2024/04/08 03:57:29;;;;;;;8.45;2.40;;;13.60;99.90;;;;;;5231532;27;20004;-79
2024/04/08 03:59:54;;;;;;;20.88;3.33;;;13.60;99.90;;;;;;5220830;27;20466;-78
2024/04/08 04:02:20;;;;;;;20.63;2.40;;;13.60;99.90;;;;;;5225767;27;20039;-79
2024/04/08 04:04:45;;;;;;;8.35;2.42;;;13.70;99.90;;;;;;5227515;27;20050;-78
2024/04/08 04:07:12;;;;;;;7.13;2.00;;;13.60;99.90;;;;;;5230878;27;20478;-80
2024/04/08 04:09:38;;;;;;;15.93;2.80;;;13.40;99.90;;;;;;5227127;27;20011;-78
2024/04/08 04:12:04;;;;;;;9.23;2.67;;;13.20;99.90;;;;;;5229077;27;20023;-78
2024/04/08 04:14:29;;;;;;;14.23;2.90;;;13.30;99.90;;;;;;5213320;27;20479;-78
2024/04/08 04:16:55;;;;;;;12.30;2.65;;;13.40;99.90;;;;;;5225741;27;20032;-80
2024/04/08 04:19:20;;;;;;;12.77;2.50;;;13.40;99.90;;;;;;5229325;27;20001;-77
2024/04/08 04:21:46;;;;;;;15.30;2.65;;;13.40;99.90;;;;;;5219599;27;19999;-78
2024/04/08 04:24:11;;;;;;;10.32;2.80;;;13.40;99.90;;;;;;5216512;27;20007;-80
2024/04/08 04:26:37;;;;;;;9.30;2.67;;;13.50;99.90;;;;;;5238523;27;20015;-78
2024/04/08 04:29:02;;;;;;;17.58;2.53;;;13.40;99.90;;;;;;5229860;27;20048;-78
2024/04/08 04:31:41;;;;;;;21.63;2.92;;;13.20;99.90;;;;;;5233291;27;20042;-79
2024/04/08 04:34:07;;;;;;;15.60;3.08;;;13.40;99.90;;;;;;5232553;27;20009;-80
2024/04/08 04:36:32;;;;;;;18.92;3.03;;;13.70;99.90;;;;;;5223926;27;19999;-80
2024/04/08 04:38:58;;;;;;;12.68;2.78;;;14.00;99.90;;;;;;5223990;27;20411;-78
2024/04/08 04:41:23;;;;;;;10.68;2.17;;;14.10;99.90;;;;;;5221760;27;20051;-79
2024/04/08 04:43:49;;;;;;;9.25;3.40;;;13.70;99.90;;;;;;5224895;27;20353;-80
2024/04/08 04:46:14;;;;;;;14.48;2.55;;;13.80;99.90;;;;;;5212461;27;19999;-78
2024/04/08 04:48:40;;;;;;;8.50;1.65;;;13.60;99.90;;;;;;5219883;27;20027;-81
2024/04/08 04:51:06;;;;;;;16.30;2.80;;;13.40;99.90;;;;;;5226104;27;20008;-79
2024/04/08 04:53:31;;;;;;;12.88;2.85;;;13.60;99.90;;;;;;5219383;27;20004;-80
2024/04/08 04:55:57;;;;;;;14.35;2.75;;;13.60;99.90;;;;;;5210483;27;20067;-79
2024/04/08 04:58:23;;;;;;;35.72;3.22;;;13.60;99.90;;;;;;5223517;27;20014;-80
2024/04/08 05:00:49;;;;;;;18.77;2.97;;;13.50;99.90;;;;;;5234591;27;20011;-78
2024/04/08 05:03:16;;;;;;;25.50;3.20;;;13.40;99.90;;;;;;5232576;27;20346;-79
2024/04/08 05:05:41;;;;;;;23.58;2.75;;;13.50;99.90;;;;;;5225931;27;20004;-78
2024/04/08 05:08:07;;;;;;;23.52;3.13;;;13.40;99.90;;;;;;5233024;27;20011;-78
2024/04/08 05:10:32;;;;;;;15.07;3.05;;;13.40;99.90;;;;;;5226837;27;20052;-79
2024/04/08 05:12:58;;;;;;;14.23;3.33;;;13.30;99.90;;;;;;5224097;27;20014;-78
2024/04/08 05:15:23;;;;;;;9.07;2.33;;;13.70;99.90;;;;;;5217628;27;20413;-79
2024/04/08 05:17:49;;;;;;;25.08;3.58;;;13.60;99.90;;;;;;5209284;27;20025;-79
2024/04/08 05:20:15;;;;;;;13.63;2.90;;;13.60;99.90;;;;;;5213989;27;19999;-79
2024/04/08 05:22:46;;;;;;;24.70;3.03;;;13.70;99.90;;;;;;5230370;27;20502;-79
2024/04/08 05:25:12;;;;;;;25.40;3.15;;;13.60;99.90;;;;;;5217848;27;20008;-80
2024/04/08 05:27:37;;;;;;;15.40;2.72;;;13.50;99.90;;;;;;5212027;27;20022;-80
2024/04/08 05:30:05;;;;;;;20.00;2.88;;;13.60;99.90;;;;;;5225003;27;20014;-78
2024/04/08 05:32:30;;;;;;;11.50;3.15;;;13.60;99.90;;;;;;5225726;27;20007;-78
2024/04/08 05:34:56;;;;;;;20.23;2.97;;;13.80;99.90;;;;;;5227410;27;20468;-78
2024/04/08 05:37:21;;;;;;;16.98;2.97;;;13.80;99.90;;;;;;5233878;27;20007;-78
2024/04/08 05:39:47;;;;;;;15.43;2.30;;;13.90;99.90;;;;;;5218447;27;20008;-78
2024/04/08 05:42:12;;;;;;;26.85;3.13;;;13.80;99.90;;;;;;5230975;27;20007;-81
2024/04/08 05:44:38;;;;;;;27.60;3.92;;;13.80;99.90;;;;;;5220112;27;20482;-80
2024/04/08 05:47:03;;;;;;;10.93;2.45;;;14.00;99.90;;;;;;5231145;27;19999;-78
2024/04/08 05:49:29;;;;;;;21.33;2.55;;;14.00;99.90;;;;;;5213931;27;20003;-80
2024/04/08 05:51:54;;;;;;;20.58;3.60;;;13.80;99.90;;;;;;5217577;27;20007;-79
2024/04/08 05:54:20;;;;;;;21.67;2.95;;;14.00;99.90;;;;;;5228147;27;20057;-80
2024/04/08 05:56:46;;;;;;;13.38;2.53;;;14.20;99.90;;;;;;5226069;27;20392;-77
2024/04/08 05:59:11;;;;;;;13.73;2.88;;;14.20;99.90;;;;;;5222001;27;20035;-78
2024/04/08 06:01:37;;;;;;;17.50;3.22;;;14.20;99.90;;;;;;5217069;27;19995;-78
2024/04/08 06:04:03;;;;;;;15.77;3.30;;;14.10;99.90;;;;;;5220697;27;20043;-78
2024/04/08 06:06:29;;;;;;;14.65;2.60;;;14.00;99.90;;;;;;5224065;27;20361;-78
2024/04/08 06:09:05;;;;;;;19.35;2.33;;;13.90;99.90;;;;;;5227692;27;20012;-79
2024/04/08 06:11:31;;;;;;;31.98;3.35;;;14.00;99.90;;;;;;5212500;27;20459;-79
2024/04/08 06:13:57;;;;;;;15.52;2.58;;;14.40;99.90;;;;;;5216317;27;20485;-78
2024/04/08 06:16:22;;;;;;;17.73;3.15;;;14.30;99.90;;;;;;5224370;27;20019;-78
2024/04/08 06:18:48;;;;;;;15.00;3.30;;;14.20;99.90;;;;;;5221046;27;20063;-78
2024/04/08 06:21:14;;;;;;;19.88;3.03;;;14.20;99.90;;;;;;5210521;27;20045;-80
2024/04/08 06:23:39;;;;;;;26.48;3.35;;;14.40;99.90;;;;;;5213939;27;20004;-78
2024/04/08 06:26:05;;;;;;;24.73;3.30;;;14.40;99.90;;;;;;5228466;27;20004;-78
2024/04/08 06:28:30;;;;;;;21.35;2.28;;;14.40;99.90;;;;;;5225232;27;20007;-78
2024/04/08 06:30:56;;;;;;;26.88;3.28;;;14.50;99.90;;;;;;5221877;27;20007;-80
2024/04/08 06:33:22;;;;;;;16.73;3.15;;;14.60;99.90;;;;;;5227891;27;20520;-78
2024/04/08 06:35:48;;;;;;;18.58;2.63;;;14.50;99.90;;;;;;5235089;27;20021;-79
2024/04/08 06:38:14;;;;;;;26.38;3.05;;;14.60;99.90;;;;;;5225981;27;20019;-78
2024/04/08 06:40:43;;;;;;;16.63;3.33;;;14.40;99.90;;;;;;5225075;27;20016;-78
2024/04/08 06:43:09;;;;;;;26.40;2.67;;;14.30;99.90;;;;;;5222466;27;20018;-80
2024/04/08 06:45:35;;;;;;;23.75;2.92;;;14.40;99.90;;;;;;5216888;27;20003;-81
2024/04/08 06:48:01;;;;;;;27.98;3.33;;;14.40;99.90;;;;;;5222776;27;19999;-78
2024/04/08 06:50:26;;;;;;;16.20;3.00;;;14.30;99.90;;;;;;5219714;27;20019;-79
2024/04/08 06:52:52;;;;;;;21.30;3.08;;;14.10;99.90;;;;;;5216968;27;20008;-78
2024/04/08 06:55:18;;;;;;;24.50;3.50;;;14.20;99.90;;;;;;5219469;27;20078;-78
2024/04/08 06:57:43;;;;;;;29.63;3.83;;;14.10;99.90;;;;;;5228765;27;19999;-80
2024/04/08 07:00:10;;;;;;;24.33;3.47;;;14.30;99.90;;;;;;5228939;27;20003;-78
2024/04/08 07:02:36;;;;;;;24.73;4.47;;;14.40;99.90;;;;;;5226620;27;20011;-80
2024/04/08 07:05:04;;;;;;;12.65;2.47;;;14.50;99.90;;;;;;5233555;27;20477;-80
2024/04/08 07:07:30;;;;;;;32.17;9.90;;;14.80;99.90;;;;;;5235071;27;20036;-79
2024/04/08 07:09:56;;;;;;;32.45;9.68;;;14.90;99.90;;;;;;5230386;27;20436;-79
2024/04/08 07:12:21;;;;;;;44.78;14.38;;;15.00;99.90;;;;;;5222288;27;20494;-78
2024/04/08 07:14:51;;;;;;;39.35;11.55;;;15.00;99.90;;;;;;5233186;27;20462;-79
2024/04/08 07:17:17;;;;;;;23.80;6.95;;;15.00;99.90;;;;;;5213831;27;20000;-78
2024/04/08 07:19:42;;;;;;;36.83;6.03;;;15.10;99.90;;;;;;5228764;27;20481;-78
2024/04/08 07:22:09;;;;;;;27.17;4.53;;;15.10;99.90;;;;;;5223040;27;19999;-80
2024/04/08 07:24:34;;;;;;;29.17;4.57;;;15.30;99.90;;;;;;5245849;27;20004;-78
2024/04/08 07:27:01;;;;;;;16.50;3.45;;;15.30;99.90;;;;;;5234847;27;20360;-78
2024/04/08 07:29:27;;;;;;;24.08;3.65;;;15.40;99.90;;;;;;5220568;27;19999;-81
2024/04/08 07:31:52;;;;;;;22.50;4.55;;;15.30;99.90;;;;;;5226156;27;20010;-81
2024/04/08 07:34:20;;;;;;;26.25;3.75;;;15.40;99.90;;;;;;5223147;27;20015;-79
2024/04/08 07:36:46;;;;;;;15.48;3.28;;;15.50;99.90;;;;;;5219504;27;20011;-79
2024/04/08 07:39:11;;;;;;;12.82;3.15;;;15.60;99.90;;;;;;5224123;27;20399;-79
2024/04/08 07:41:37;;;;;;;19.40;4.07;;;15.70;99.90;;;;;;5222588;27;20007;-78
2024/04/08 07:44:03;;;;;;;8.32;3.30;;;15.80;99.90;;;;;;5221017;27;20039;-81
2024/04/08 07:46:28;;;;;;;10.25;3.35;;;15.90;99.90;;;;;;5215089;27;20059;-81
2024/04/08 07:48:54;;;;;;;24.58;3.95;;;16.00;99.90;;;;;;5217358;27;20106;-78
2024/04/08 07:51:20;;;;;;;11.57;3.70;;;16.10;99.90;;;;;;5235573;27;20003;-79
2024/04/08 07:53:45;;;;;;;20.75;6.20;;;16.20;99.90;;;;;;5236036;27;20011;-78
2024/04/08 07:56:11;;;;;;;19.58;5.78;;;16.20;99.90;;;;;;5237855;27;20014;-78
2024/04/08 07:58:37;;;;;;;13.98;4.60;;;16.20;99.90;;;;;;5227602;27;20000;-78
2024/04/08 08:01:03;;;;;;;18.15;4.60;;;16.40;99.90;;;;;;5234274;27;20050;-79
2024/04/08 08:03:29;;;;;;;25.85;4.63;;;16.40;99.90;;;;;;5226729;27;20086;-78
2024/04/08 08:05:55;;;;;;;30.48;4.68;;;16.60;99.90;;;;;;5227260;27;19995;-79
2024/04/08 08:08:22;;;;;;;11.15;3.65;;;16.80;99.90;;;;;;5221136;27;20015;-78
2024/04/08 08:10:47;;;;;;;26.75;4.35;;;16.90;99.90;;;;;;5236414;27;19999;-79
2024/04/08 08:13:13;;;;;;;24.50;4.03;;;17.00;99.90;;;;;;5237737;27;20031;-79
2024/04/08 08:15:38;;;;;;;22.98;3.20;;;17.00;99.90;;;;;;5238774;27;20003;-79
2024/04/08 08:18:04;;;;;;;14.60;2.92;;;17.10;99.90;;;;;;5216727;27;19999;-79
2024/04/08 08:20:30;;;;;;;13.90;3.42;;;17.40;99.90;;;;;;5220226;27;20014;-79
2024/04/08 08:22:58;;;;;;;13.32;3.55;;;17.50;99.90;;;;;;5230829;27;20073;-78
2024/04/08 08:25:24;;;;;;;22.30;4.18;;;17.50;99.90;;;;;;5231085;27;20031;-79
2024/04/08 08:27:50;;;;;;;20.20;3.83;;;17.60;99.90;;;;;;5233239;27;20007;-81
2024/04/08 08:30:16;;;;;;;21.70;4.88;;;17.70;99.90;;;;;;5221892;27;20458;-79
2024/04/08 08:32:43;;;;;;;10.80;3.38;;;17.80;99.90;;;;;;5223252;27;20009;-79
2024/04/08 08:35:08;;;;;;;17.77;3.70;;;17.90;99.90;;;;;;5225884;27;20469;-83
2024/04/08 08:37:34;;;;;;;22.65;3.65;;;17.90;99.90;;;;;;5233254;27;20011;-81
2024/04/08 08:39:59;;;;;;;19.00;3.22;;;18.00;99.90;;;;;;5220584;27;20010;-81
2024/04/08 08:42:28;;;;;;;11.75;3.05;;;18.00;99.90;;;;;;5216317;27;20338;-81
2024/04/08 08:44:56;;;;;;;20.80;3.33;;;18.10;99.90;;;;;;5230101;27;20066;-80
2024/04/08 08:47:23;;;;;;;15.20;3.35;;;18.10;99.90;;;;;;5227494;27;20016;-81
2024/04/08 08:49:53;;;;;;;19.45;2.90;;;18.20;99.90;;;;;;5228948;27;20002;-81
2024/04/08 08:52:19;;;;;;;;;;;18.30;99.90;;;;;;5231560;27;20011;-79
2024/04/08 08:54:44;;;;;;;14.73;3.17;;;18.50;99.90;;;;;;5227564;27;19955;-80
2024/04/08 08:57:10;;;;;;;25.10;3.03;;;18.60;99.90;;;;;;5230130;27;20035;-79
2024/04/08 08:59:37;;;;;;;25.48;3.60;;;18.70;99.90;;;;;;5235316;27;20501;-81
2024/04/08 09:02:04;;;;;;;20.33;3.60;;;18.80;99.90;;;;;;5223793;27;20027;-81
2024/04/08 09:04:30;;;;;;;19.17;3.42;;;18.90;99.90;;;;;;5217079;27;20003;-80
2024/04/08 09:06:56;;;;;;;21.80;3.33;;;18.90;99.90;;;;;;5236271;27;20018;-80
2024/04/08 09:09:21;;;;;;;23.27;3.67;;;18.80;99.90;;;;;;5223369;27;20095;-80
2024/04/08 09:11:50;;;;;;;15.80;3.05;;;19.00;99.90;;;;;;5216815;27;20051;-80
2024/04/08 09:14:16;;;;;;;8.18;3.67;;;19.00;99.90;;;;;;5216641;27;20007;-80
2024/04/08 09:16:42;;;;;;;21.05;3.38;;;19.20;99.90;;;;;;5230779;27;20015;-80
2024/04/08 09:19:10;;;;;;;16.23;2.55;;;19.50;99.90;;;;;;5231466;27;20083;-81
2024/04/08 09:21:36;;;;;;;18.15;3.65;;;19.60;99.90;;;;;;5236321;27;19999;-81
2024/04/08 09:24:06;;;;;;;18.63;2.90;;;19.70;99.90;;;;;;5250843;27;20485;-80
2024/04/08 09:26:32;;;;;;;15.70;2.72;;;19.60;99.90;;;;;;5220565;27;20362;-81
2024/04/08 09:28:59;;;;;;;21.40;3.40;;;19.70;99.90;;;;;;5230800;27;20018;-80
2024/04/08 09:31:25;;;;;;;22.55;3.10;;;19.80;99.90;;;;;;5226944;27;20007;-80
2024/04/08 09:33:51;;;;;;;13.88;2.60;;;19.80;99.90;;;;;;5221147;27;19999;-80
2024/04/08 09:36:17;;;;;;;9.93;3.17;;;20.10;99.90;;;;;;5237903;27;20003;-80
2024/04/08 09:38:43;;;;;;;13.18;2.67;;;20.20;99.90;;;;;;5236139;27;20421;-81
2024/04/08 09:41:13;;;;;;;15.40;2.72;;;20.30;99.90;;;;;;5229469;27;20043;-80
2024/04/08 09:43:39;;;;;;;;;;;20.30;99.90;;;;;;5219365;27;20015;-80
2024/04/08 09:46:05;;;;;;;8.50;2.97;;;20.40;99.90;;;;;;5223787;27;19935;-80
2024/04/08 09:48:32;;;;;;;12.68;2.22;;;20.40;99.90;;;;;;5235690;27;20010;-80
2024/04/08 09:51:00;;;;;;;13.23;2.15;;;20.50;99.90;;;;;;5233662;27;20007;-81
2024/04/08 09:53:32;;;;;;;15.52;2.50;;;20.20;99.90;;;;;;5232837;27;20003;-80
2024/04/08 09:56:04;;;;;;;18.55;2.67;;;20.30;99.90;;;;;;5237665;27;20007;-81
2024/04/08 09:58:33;;;;;;;8.70;2.65;;;20.50;99.90;;;;;;5228113;27;20055;-82
2024/04/08 10:01:03;;;;;;;13.77;2.20;;;20.50;99.90;;;;;;5226785;27;19999;-81
2024/04/08 10:03:37;;;;;;;12.20;2.20;;;20.50;99.90;;;;;;5237842;27;20509;-83
2024/04/08 10:06:04;;;;;;;14.50;2.63;;;20.70;99.90;;;;;;5217718;27;19999;-87
2024/04/08 10:08:30;;;;;;;11.20;2.67;;;20.80;99.90;;;;;;5220869;27;20458;-82
2024/04/08 10:10:55;;;;;;;18.45;2.60;;;20.90;99.90;;;;;;5230133;27;20018;-82
2024/04/08 10:13:21;;;;;;;17.85;2.30;;;20.90;99.90;;;;;;5225024;27;20021;-82
2024/04/08 10:15:46;;;;;;;15.40;2.63;;;21.10;99.90;;;;;;5235367;27;20003;-80
2024/04/08 10:18:12;;;;;;;14.55;2.67;;;21.10;99.90;;;;;;5223499;27;19999;-82
2024/04/08 10:20:42;;;;;;;18.85;3.38;;;21.30;99.90;;;;;;5222093;27;20032;-80
2024/04/08 10:23:09;;;;;;;;;;;21.40;99.90;;;;;;5238317;27;20014;-80
2024/04/08 10:25:40;;;;;;;15.43;3.45;;;21.30;99.90;;;;;;5226302;27;19940;-79
2024/04/08 10:28:15;;;;;;;21.50;3.08;;;21.40;99.90;;;;;;5223214;27;20488;-79
2024/04/08 10:30:43;;;;;;;21.30;2.40;;;21.40;99.20;;;;;;5221467;27;20045;-80
2024/04/08 10:33:10;;;;;;;10.23;2.80;;;21.30;98.00;;;;;;5233386;27;20017;-79
2024/04/08 10:35:36;;;;;;;7.30;2.38;;;21.40;98.90;;;;;;5235053;27;20354;-80
2024/04/08 10:38:02;;;;;;;10.90;2.55;;;21.60;98.20;;;;;;5232859;27;20029;-80
2024/04/08 10:40:27;;;;;;;11.75;2.72;;;21.70;98.00;;;;;;5229147;27;20035;-79
2024/04/08 10:42:55;;;;;;;13.50;2.72;;;21.60;97.00;;;;;;5232117;27;20536;-79
2024/04/08 10:45:21;;;;;;;14.82;2.60;;;21.70;98.40;;;;;;5232725;27;19995;-80
2024/04/08 10:47:47;;;;;;;12.20;2.65;;;21.60;96.50;;;;;;5227671;27;20844;-81
2024/04/08 10:50:13;;;;;;;17.20;2.95;;;21.70;97.90;;;;;;5223881;27;20003;-79
2024/04/08 10:52:40;;;;;;;15.52;2.63;;;21.80;99.40;;;;;;5225837;27;20000;-79
2024/04/08 10:55:07;;;;;;;17.55;2.63;;;21.80;98.00;;;;;;5236531;27;20000;-80
2024/04/08 10:57:33;;;;;;;14.45;2.63;;;21.80;99.90;;;;;;5224647;27;20076;-81
2024/04/08 10:59:59;;;;;;;19.10;3.40;;;21.70;99.20;;;;;;5221310;27;20003;-80
2024/04/08 11:02:25;;;;;;;24.15;3.08;;;21.90;99.90;;;;;;5225371;27;20018;-79
2024/04/08 11:04:52;;;;;;;17.23;3.22;;;21.80;97.10;;;;;;5230862;27;20003;-79
2024/04/08 11:07:17;;;;;;;14.52;2.88;;;22.00;97.10;;;;;;5223393;27;20061;-79
2024/04/08 11:09:43;;;;;;;12.38;2.10;;;22.00;99.20;;;;;;5230898;27;19996;-80
2024/04/08 11:12:13;;;;;;;11.88;2.50;;;21.90;98.70;;;;;;5231519;27;20003;-80
2024/04/08 11:14:40;;;;;;;18.75;2.75;;;22.00;96.90;;;;;;5228808;27;20000;-79
2024/04/08 11:17:09;;;;;;;12.77;2.83;;;22.00;96.80;;;;;;5231942;27;20002;-79
2024/04/08 11:19:38;;;;;;;11.67;3.20;;;21.90;97.80;;;;;;5233218;27;20011;-78
2024/04/08 11:22:10;;;;;;;25.58;3.40;;;22.00;96.80;;;;;;5232740;27;20231;-81
2024/04/08 11:24:41;;;;;;;15.35;2.55;;;22.00;97.90;;;;;;5243244;27;20012;-80
2024/04/08 11:27:08;;;;;;;22.67;3.40;;;22.30;97.60;;;;;;5231030;27;20054;-82
2024/04/08 11:29:34;;;;;;;26.95;3.25;;;22.30;98.30;;;;;;5224127;27;20100;-82
2024/04/08 11:32:00;;;;;;;15.55;2.90;;;22.20;97.40;;;;;;5223421;27;20032;-80
2024/04/08 11:34:25;;;;;;;10.95;2.00;;;22.10;98.40;;;;;;5228677;27;20468;-80
2024/04/08 11:36:51;;;;;;;19.58;2.45;;;22.20;98.80;;;;;;5229236;27;19995;-80
2024/04/08 11:39:16;;;;;;;12.07;2.95;;;22.30;98.00;;;;;;5235897;27;20534;-82
2024/04/08 11:41:42;;;;;;;16.95;2.83;;;22.40;95.30;;;;;;5233132;27;20751;-81
2024/04/08 11:44:08;;;;;;;13.73;2.03;;;22.40;92.50;;;;;;5229236;27;19999;-80
2024/04/08 11:46:34;;;;;;;26.50;3.28;;;22.30;95.00;;;;;;5227865;27;20009;-80
2024/04/08 11:48:59;;;;;;;12.48;3.10;;;22.40;94.20;;;;;;5235346;27;20011;-80
2024/04/08 11:51:25;;;;;;;14.68;2.70;;;22.50;94.70;;;;;;5239653;27;20075;-81
2024/04/08 11:53:50;;;;;;;23.17;2.65;;;22.40;96.20;;;;;;5239727;27;20003;-80
2024/04/08 11:56:16;;;;;;;18.73;2.83;;;22.50;95.30;;;;;;5226190;27;20007;-82
2024/04/08 11:58:41;;;;;;;17.95;2.58;;;22.60;94.20;;;;;;5231554;27;20007;-82
2024/04/08 12:01:07;;;;;;;16.02;2.90;;;22.50;92.40;;;;;;5230236;27;20406;-81
2024/04/08 12:03:32;;;;;;;11.18;2.47;;;22.40;92.70;;;;;;5217925;27;20534;-83
2024/04/08 12:06:00;;;;;;;18.77;3.13;;;22.50;94.80;;;;;;5236861;27;19999;-79
2024/04/08 12:08:25;;;;;;;23.17;3.45;;;22.50;92.50;;;;;;5228882;27;20850;-80
2024/04/08 12:10:51;;;;;;;21.38;3.35;;;22.40;94.80;;;;;;5228459;27;20000;-82
2024/04/08 12:13:18;;;;;;;27.58;3.38;;;22.20;98.70;;;;;;5238036;27;20021;-81
2024/04/08 12:15:46;;;;;;;22.38;3.17;;;22.00;99.90;;;;;;5219174;27;20000;-81
2024/04/08 12:18:11;;;;;;;25.83;3.60;;;22.30;94.30;;;;;;5220058;27;20003;-80
2024/04/08 12:20:37;;;;;;;19.58;3.08;;;22.10;92.70;;;;;;5230851;27;20081;-80
2024/04/08 12:23:02;;;;;;;29.60;3.45;;;21.90;92.90;;;;;;5228728;27;19995;-80
2024/04/08 12:25:28;;;;;;;18.90;2.47;;;21.70;93.60;;;;;;5222050;27;20000;-81
2024/04/08 12:27:54;;;;;;;18.50;3.25;;;21.60;92.90;;;;;;5237472;27;20125;-80
2024/04/08 12:30:19;;;;;;;13.95;2.88;;;21.60;92.80;;;;;;5230793;27;20011;-80
2024/04/08 12:32:45;;;;;;;20.63;2.22;;;21.50;92.20;;;;;;5225911;27;20004;-82